Time;durP1;ratioP1;P1;durP2;ratioP2;P2;SDS_P1;SDS_P2;PMS_P1;PMS_P2;Temp;Humidity;BMP_temperature;BMP_pressure;BME280_temperature;BME280_humidity;BME280_pressure;Samples;Min_cycle;Max_cycle;Signal;HPM_P1;HPM_P2
2022/02/02 00:00:18;;;;;;;5.35;4.87;;;;;;;3.84;70.82;100354.11;462993;111;922514;-71
2022/02/02 00:01:33;;;;;;;6.02;5.44;;;;;;;3.79;70.86;100354.64;462114;112;922933;-72
2022/02/02 00:03:30;;;;;;;5.87;5.34;;;;;;;3.74;71.04;100360.58;459346;111;923189;-71
2022/02/02 00:04:36;;;;;;;5.81;5.32;;;;;;;3.72;71.03;100359.89;459719;111;922658;-71
2022/02/02 00:05:59;;;;;;;5.71;5.27;;;;;;;3.72;71.15;100357.20;462569;111;923003;-70
2022/02/02 00:08:03;;;;;;;5.62;5.12;;;;;;;3.83;71.18;100364.05;472347;110;946804;-71
2022/02/02 00:09:08;;;;;;;6.17;5.67;;;;;;;3.73;71.16;100363.44;460748;113;922629;-71
2022/02/02 00:10:30;;;;;;;6.16;5.66;;;;;;;3.71;71.17;100352.81;455519;113;922558;-71
2022/02/02 00:11:46;;;;;;;6.30;5.71;;;;;;;3.71;71.15;100354.67;453446;114;922559;-71
2022/02/02 00:13:41;;;;;;;6.97;6.19;;;;;;;3.70;71.19;100350.29;440998;118;923328;-70
2022/02/02 00:16:09;;;;;;;5.88;5.39;;;;;;;3.70;71.27;100350.29;462025;114;922581;-71
2022/02/02 00:17:14;;;;;;;6.13;5.55;;;;;;;3.71;71.37;100343.89;460673;113;922659;-71
2022/02/02 00:18:45;;;;;;;6.77;6.17;;;;;;;3.72;71.43;100341.02;460677;114;922971;-73
2022/02/02 00:19:40;;;;;;;6.25;5.76;;;;;;;3.75;71.39;100339.81;459205;114;922666;-69
2022/02/02 00:20:54;;;;;;;;;;;;;;;3.75;71.40;100343.35;463793;113;922116;-70
2022/02/02 00:21:53;;;;;;;6.21;5.62;;;;;;;3.77;71.35;100340.48;460766;114;922419;-71
2022/02/02 00:22:57;;;;;;;6.09;5.55;;;;;;;3.75;71.37;100340.66;459869;114;922658;-71
2022/02/02 00:24:03;;;;;;;6.83;6.23;;;;;;;3.76;71.53;100342.34;454556;116;922760;-71
2022/02/02 00:25:13;;;;;;;6.70;6.10;;;;;;;3.80;71.54;100337.45;462680;113;923617;-71
2022/02/02 00:26:18;;;;;;;5.91;5.43;;;;;;;3.81;71.38;100338.27;460734;113;922878;-72
2022/02/02 00:27:20;;;;;;;7.08;6.48;;;;;;;3.82;71.23;100343.49;462506;114;922748;-70
2022/02/02 00:28:28;;;;;;;6.58;5.98;;;;;;;3.80;71.24;100348.23;462710;113;922600;-71
2022/02/02 00:29:36;;;;;;;6.94;6.34;;;;;;;3.80;71.26;100347.40;462397;113;922587;-71
2022/02/02 00:30:38;;;;;;;7.01;6.40;;;;;;;3.81;71.21;100339.11;461511;114;923020;-71
2022/02/02 00:31:48;;;;;;;7.29;6.62;;;;;;;3.80;71.13;100345.55;462442;113;922493;-71
2022/02/02 00:33:10;;;;;;;6.93;6.16;;;;;;;3.76;71.07;100336.11;461558;113;922958;-72
2022/02/02 00:34:05;;;;;;;6.57;6.05;;;;;;;3.74;71.02;100336.30;460071;113;923241;-70
2022/02/02 00:35:07;;;;;;;6.28;5.81;;;;;;;3.72;71.10;100335.63;462430;113;923331;-70
2022/02/02 00:36:17;;;;;;;6.18;5.71;;;;;;;3.73;71.28;100336.47;463132;113;922565;-71
2022/02/02 00:37:17;;;;;;;6.45;5.93;;;;;;;3.75;71.38;100335.27;461857;113;922636;-70
2022/02/02 00:38:20;;;;;;;6.28;5.82;;;;;;;3.79;71.42;100335.77;461675;113;922990;-71
2022/02/02 00:39:26;;;;;;;7.73;7.03;;;;;;;3.83;71.45;100337.09;462675;113;922715;-71
2022/02/02 00:40:29;;;;;;;7.54;6.79;;;;;;;3.88;71.46;100334.70;462221;114;923057;-70
2022/02/02 00:41:33;;;;;;;6.83;6.31;;;;;;;3.93;71.45;100328.76;461468;114;922620;-70
2022/02/02 00:42:36;;;;;;;6.77;6.21;;;;;;;3.98;71.39;100326.36;461944;113;930973;-70
2022/02/02 00:43:41;;;;;;;6.83;6.23;;;;;;;4.01;71.36;100323.33;462520;114;930548;-70
2022/02/02 00:44:53;;;;;;;6.64;6.06;;;;;;;4.06;71.23;100331.72;460010;113;922689;-70
2022/02/02 00:45:52;;;;;;;6.16;5.64;;;;;;;4.09;71.12;100331.34;462057;113;922547;-71
2022/02/02 00:46:56;;;;;;;7.21;6.59;;;;;;;4.11;71.03;100332.86;461364;113;922826;-71
2022/02/02 00:48:01;;;;;;;6.46;5.86;;;;;;;4.13;70.95;100327.30;462570;114;922666;-72
2022/02/02 00:49:06;;;;;;;6.62;6.07;;;;;;;4.14;70.78;100337.89;462711;113;923029;-72
2022/02/02 00:50:09;;;;;;;6.71;6.07;;;;;;;4.13;70.59;100329.99;462367;113;922919;-71
2022/02/02 00:51:17;;;;;;;5.84;5.42;;;;;;;4.11;70.41;100334.72;462682;113;922530;-71
2022/02/02 00:52:18;;;;;;;6.19;5.69;;;;;;;4.09;70.44;100337.59;463554;114;922621;-71
2022/02/02 00:53:21;;;;;;;7.08;6.44;;;;;;;4.07;70.43;100328.02;463132;114;922666;-71
2022/02/02 00:54:27;;;;;;;7.03;6.42;;;;;;;4.05;70.39;100332.73;462970;113;922599;-71
2022/02/02 00:55:30;;;;;;;6.41;5.88;;;;;;;4.03;70.37;100332.91;462201;114;922631;-72
2022/02/02 00:56:33;;;;;;;7.10;6.41;;;;;;;4.01;70.38;100328.72;463002;114;922973;-71
2022/02/02 00:57:36;;;;;;;6.83;6.24;;;;;;;3.99;70.39;100331.59;462091;113;922551;-70
2022/02/02 00:58:39;;;;;;;7.00;6.40;;;;;;;3.98;70.46;100343.39;463016;113;922690;-70
2022/02/02 00:59:43;;;;;;;7.16;6.56;;;;;;;3.99;70.54;100336.98;462094;114;923229;-71
2022/02/02 01:00:46;;;;;;;7.51;6.84;;;;;;;4.00;70.64;100335.97;462600;114;922901;-71
2022/02/02 01:01:51;;;;;;;6.92;6.33;;;;;;;4.01;70.56;100332.27;463010;113;922621;-71
2022/02/02 01:02:54;;;;;;;6.83;6.23;;;;;;;4.01;70.53;100337.66;462022;113;922643;-71
2022/02/02 01:03:57;;;;;;;7.30;6.65;;;;;;;4.01;70.39;100337.66;461965;114;922527;-71
2022/02/02 01:05:00;;;;;;;6.67;6.06;;;;;;;4.01;70.40;100339.52;462220;113;922570;-71
2022/02/02 01:06:07;;;;;;;7.26;6.64;;;;;;;4.01;70.31;100339.52;462409;114;922749;-73
2022/02/02 01:09:47;;;;;;;8.05;7.36;;;;;;;3.95;70.19;100351.02;458383;114;922768;-71
2022/02/02 01:10:56;;;;;;;8.04;7.45;;;;;;;3.92;70.22;100348.66;456814;114;922878;-71
2022/02/02 01:18:25;;;;;;;8.33;7.63;;;;;;;3.69;70.57;100340.55;439419;118;923161;-71
2022/02/02 01:19:39;;;;;;;8.73;7.92;;;;;;;3.67;70.56;100332.63;439835;118;922997;-70
2022/02/02 01:28:26;;;;;;;9.29;8.49;;;;;;;3.60;70.67;100320.86;456946;114;922901;-71
2022/02/02 01:29:30;;;;;;;10.36;9.34;;;;;;;3.56;70.90;100324.93;457087;114;922513;-70
2022/02/02 01:30:34;;;;;;;9.85;9.02;;;;;;;3.55;70.96;100311.62;457512;113;922642;-71
2022/02/02 01:31:36;;;;;;;10.39;9.43;;;;;;;3.53;71.14;100303.70;456995;114;930670;-72
2022/02/02 01:32:40;;;;;;;11.16;10.03;;;;;;;3.57;71.29;100310.44;448704;116;922619;-71
2022/02/02 01:33:43;;;;;;;10.49;9.63;;;;;;;3.60;71.42;100323.55;448297;116;922602;-71
2022/02/02 01:34:46;;;;;;;10.46;9.56;;;;;;;3.65;71.35;100323.02;449032;116;923338;-70
2022/02/02 01:35:50;;;;;;;10.02;9.12;;;;;;;3.67;71.38;100327.23;448428;116;930529;-71
2022/02/02 01:36:53;;;;;;;10.14;9.34;;;;;;;3.70;71.38;100321.47;448149;117;922554;-71
2022/02/02 01:37:57;;;;;;;11.03;10.11;;;;;;;3.73;71.41;100328.38;448899;116;922647;-71
2022/02/02 01:39:00;;;;;;;10.93;9.99;;;;;;;3.77;71.31;100346.72;457072;113;923058;-72
2022/02/02 01:40:11;;;;;;;9.81;9.01;;;;;;;3.77;71.11;100332.39;444596;116;922694;-71
2022/02/02 01:41:16;;;;;;;10.77;9.90;;;;;;;3.76;71.02;100326.16;443664;116;922838;-71
2022/02/02 01:42:17;;;;;;;11.33;10.28;;;;;;;3.77;71.16;100327.00;456305;114;922496;-72
2022/02/02 01:43:24;;;;;;;10.51;9.61;;;;;;;3.81;71.26;100332.88;456840;113;922709;-71
2022/02/02 01:44:36;;;;;;;10.66;9.74;;;;;;;3.83;71.13;100325.45;456717;114;922691;-71
2022/02/02 01:45:46;;;;;;;10.92;10.04;;;;;;;3.84;71.10;100319.05;456871;116;922498;-70
2022/02/02 01:46:48;;;;;;;10.59;9.68;;;;;;;3.87;71.20;100314.13;456615;113;922723;-71
2022/02/02 01:48:43;;;;;;;10.52;9.66;;;;;;;3.90;71.16;100321.04;456782;114;922596;-70
2022/02/02 01:50:22;;;;;;;11.83;10.87;;;;;;;3.97;70.68;100316.62;472856;108;1195382;-71
2022/02/02 01:52:48;;;;;;;10.43;9.63;;;;;;;3.86;70.78;100325.12;473201;109;922478;-70
2022/02/02 01:54:53;;;;;;;9.77;8.99;;;;;;;3.88;70.70;100317.67;473225;109;922677;-72
2022/02/02 01:55:42;;;;;;;10.30;9.41;;;;;;;3.89;70.82;100311.27;470531;109;922658;-72
2022/02/02 01:56:46;;;;;;;11.11;10.26;;;;;;;3.91;70.90;100310.08;472184;109;922662;-70
2022/02/02 01:58:10;;;;;;;12.02;11.04;;;;;;;3.95;70.98;100313.25;471658;109;922893;-69
2022/02/02 01:59:26;;;;;;;12.56;11.48;;;;;;;3.99;71.00;100311.86;470527;109;922680;-71
2022/02/02 02:00:16;;;;;;;15.81;13.62;;;;;;;4.03;70.97;100305.08;469768;109;922597;-70
2022/02/02 02:01:19;;;;;;;16.66;15.26;;;;;;;4.07;70.92;100306.43;472497;109;922941;-71
2022/02/02 02:02:23;;;;;;;14.93;13.73;;;;;;;4.08;70.85;100311.63;476974;109;922707;-71
2022/02/02 02:03:27;;;;;;;16.39;15.12;;;;;;;4.11;70.75;100315.84;475677;109;922520;-70
2022/02/02 02:04:30;;;;;;;16.25;14.87;;;;;;;4.10;70.65;100301.50;476526;109;930377;-69
2022/02/02 02:05:33;;;;;;;17.19;15.86;;;;;;;4.11;70.59;100305.88;477433;109;922397;-70
2022/02/02 02:06:36;;;;;;;17.88;16.41;;;;;;;4.13;70.46;100308.41;474674;109;923111;-71
2022/02/02 02:07:39;;;;;;;18.74;17.24;;;;;;;4.11;70.41;100299.64;475395;109;922508;-71
2022/02/02 02:08:43;;;;;;;20.16;18.46;;;;;;;4.09;70.34;100293.58;476811;109;922605;-68
2022/02/02 02:09:46;;;;;;;34.86;25.34;;;;;;;4.08;70.36;100305.41;475822;109;922510;-71
2022/02/02 02:10:49;;;;;;;50.08;31.07;;;;;;;4.08;70.40;100300.83;476721;109;922555;-71
2022/02/02 02:12:06;;;;;;;47.52;29.91;;;;;;;4.09;70.38;100291.72;476063;109;923165;-70
2022/02/02 02:13:15;;;;;;;51.57;31.50;;;;;;;4.10;70.39;100284.47;474531;109;922589;-71
2022/02/02 02:15:27;;;;;;;46.20;28.33;;;;;;;4.12;70.44;100282.45;474895;109;922566;-70
2022/02/02 02:16:29;;;;;;;33.19;26.18;;;;;;;4.13;70.43;100278.73;473795;109;923036;-72
2022/02/02 02:17:32;;;;;;;33.26;25.02;;;;;;;4.15;70.35;100273.98;473864;109;922570;-72
2022/02/02 02:18:35;;;;;;;24.01;21.49;;;;;;;4.15;70.32;100277.52;474733;109;922485;-70
2022/02/02 02:19:41;;;;;;;22.19;20.23;;;;;;;4.16;70.23;100276.50;473191;109;922983;-70
2022/02/02 02:20:43;;;;;;;22.71;20.53;;;;;;;4.13;69.98;100279.58;472900;109;923048;-71
2022/02/02 02:21:49;;;;;;;21.99;20.14;;;;;;;4.07;69.81;100272.20;472916;109;922634;-71
2022/02/02 02:22:51;;;;;;;21.72;19.84;;;;;;;4.00;69.78;100279.33;472874;109;922595;-70
2022/02/02 02:23:54;;;;;;;22.31;20.41;;;;;;;3.92;69.88;100273.13;473003;109;922664;-70
2022/02/02 02:24:58;;;;;;;21.49;19.54;;;;;;;3.87;70.03;100279.06;471712;109;922760;-68
2022/02/02 02:26:01;;;;;;;23.37;21.15;;;;;;;3.84;70.28;100268.66;471988;109;922525;-72
2022/02/02 02:27:04;;;;;;;19.86;18.11;;;;;;;3.84;70.44;100265.11;471865;109;922501;-70
2022/02/02 02:28:29;;;;;;;19.56;17.87;;;;;;;3.86;70.55;100271.18;476099;109;922697;-70
2022/02/02 02:29:40;;;;;;;19.31;17.56;;;;;;;3.86;70.61;100273.88;465180;111;922741;-72
2022/02/02 02:56:29;;;;;;;18.87;16.89;;;;;;;3.90;71.46;100257.16;464448;113;922530;-70
2022/02/02 02:57:43;;;;;;;18.49;16.82;;;;;;;3.92;71.29;100260.48;460217;113;923284;-71
2022/02/02 02:58:47;;;;;;;19.38;17.65;;;;;;;3.93;71.24;100253.23;460672;112;922803;-70
2022/02/02 03:00:08;;;;;;;18.67;17.03;;;;;;;3.94;71.24;100263.86;462463;113;922534;-71
2022/02/02 03:01:09;;;;;;;17.68;16.18;;;;;;;3.95;71.25;100254.75;458479;113;922715;-71
2022/02/02 03:13:47;;;;;;;18.03;16.41;;;;;;;3.98;71.03;100248.98;461841;112;923050;-69
2022/02/02 03:29:58;;;;;;;16.46;15.16;;;;;;;4.11;70.64;100211.45;461526;113;922657;-69
2022/02/02 03:31:26;;;;;;;16.84;15.41;;;;;;;4.13;70.65;100211.28;462209;112;922554;-71
2022/02/02 03:32:58;;;;;;;52.31;29.51;;;;;;;4.12;70.62;100212.30;459230;112;922631;-71
2022/02/02 03:57:36;;;;;;;18.50;16.94;;;;;;;4.02;70.83;100219.81;461385;112;929082;-72
2022/02/02 03:59:45;;;;;;;19.57;17.95;;;;;;;4.02;70.58;100215.25;444257;116;922962;-71
2022/02/02 04:01:09;;;;;;;19.72;18.13;;;;;;;4.03;70.52;100213.36;453009;113;923416;-69
2022/02/02 04:04:45;;;;;;;20.76;18.98;;;;;;;4.05;70.44;100206.78;459946;113;922771;-72
2022/02/02 04:05:46;;;;;;;21.81;19.93;;;;;;;4.07;70.45;100207.45;456136;112;923068;-72
2022/02/02 04:07:05;;;;;;;20.78;19.03;;;;;;;4.11;70.50;100216.01;459926;113;922691;-73
2022/02/02 04:08:51;;;;;;;22.04;20.05;;;;;;;4.12;70.44;100217.69;458737;112;922705;-70
2022/02/02 04:09:13;;;;;;;22.18;19.97;;;;;;;4.12;70.41;100215.84;441814;112;923588;-71
2022/02/02 04:10:17;;;;;;;22.82;20.57;;;;;;;4.14;70.37;100216.47;459093;113;923074;-70
2022/02/02 04:11:38;;;;;;;22.92;20.98;;;;;;;4.16;70.41;100213.59;461236;112;923109;-71
2022/02/02 04:12:48;;;;;;;21.92;20.04;;;;;;;4.17;70.30;100210.73;459127;112;922753;-69
2022/02/02 04:17:51;;;;;;;26.72;24.04;;;;;;;4.18;70.18;100211.57;461969;113;922641;-72
2022/02/02 04:59:16;;;;;;;15.02;13.72;;;;;;;3.95;71.22;100216.98;476475;108;923084;-71
2022/02/02 05:07:34;;;;;;;15.93;14.64;;;;;;;4.12;70.93;100228.48;476997;109;923221;-71
2022/02/02 05:18:46;;;;;;;14.54;13.09;;;;;;;4.19;70.53;100211.36;471114;110;922574;-69
2022/02/02 05:22:39;;;;;;;13.48;12.29;;;;;;;4.23;70.36;100219.95;470801;110;922574;-72
2022/02/02 05:49:16;;;;;;;51.77;36.09;;;;;;;4.38;70.11;100212.72;471333;109;922696;-70
2022/02/02 05:50:18;;;;;;;51.92;36.87;;;;;;;4.37;70.00;100215.59;468391;110;922789;-69
2022/02/02 05:52:25;;;;;;;45.92;31.21;;;;;;;4.34;70.04;100211.41;471016;109;923058;-69
2022/02/02 05:53:28;;;;;;;40.09;31.00;;;;;;;4.36;70.10;100216.61;472013;109;922594;-71
2022/02/02 05:54:31;;;;;;;41.06;31.50;;;;;;;4.36;70.12;100224.70;471194;109;922436;-76
2022/02/02 05:55:43;;;;;;;38.81;29.38;;;;;;;4.36;70.01;100225.55;470849;110;922575;-71
2022/02/02 05:56:48;;;;;;;40.92;30.62;;;;;;;4.34;69.95;100216.81;470915;109;923248;-72
2022/02/02 05:57:53;;;;;;;36.00;29.19;;;;;;;4.34;69.99;100216.81;471054;109;923031;-69
2022/02/02 05:58:59;;;;;;;35.08;28.54;;;;;;;4.35;70.09;100212.26;471235;110;922629;-70
2022/02/02 06:00:03;;;;;;;42.61;31.26;;;;;;;4.35;70.12;100212.26;471301;110;923230;-71
2022/02/02 06:01:09;;;;;;;34.01;28.26;;;;;;;4.38;70.15;100214.58;471410;109;922764;-71
2022/02/02 06:02:14;;;;;;;31.14;27.77;;;;;;;4.41;70.20;100216.92;471175;109;922550;-70
2022/02/02 06:03:19;;;;;;;29.27;26.14;;;;;;;4.44;70.25;100211.98;470747;110;922678;-71
2022/02/02 06:04:27;;;;;;;27.84;24.91;;;;;;;4.47;70.22;100217.00;471071;109;922525;-72
2022/02/02 06:05:30;;;;;;;26.61;22.14;;;;;;;4.49;70.14;100211.42;471029;109;922741;-71
2022/02/02 06:06:37;;;;;;;26.20;23.41;;;;;;;4.52;70.13;100214.58;471116;109;922549;-70
2022/02/02 06:07:42;;;;;;;25.23;22.19;;;;;;;4.54;70.10;100201.75;470851;110;930356;-70
2022/02/02 06:08:47;;;;;;;25.76;23.09;;;;;;;4.56;70.11;100209.67;471664;109;922969;-70
2022/02/02 06:09:52;;;;;;;26.13;23.17;;;;;;;4.58;70.07;100211.14;471300;109;922472;-69
2022/02/02 06:11:03;;;;;;;28.99;25.91;;;;;;;4.58;69.78;100205.75;470745;110;923077;-69
2022/02/02 06:12:06;;;;;;;26.66;24.02;;;;;;;4.58;69.78;100205.75;470676;110;930556;-70
2022/02/02 06:13:10;;;;;;;27.41;24.28;;;;;;;4.56;69.68;100209.67;470879;110;922842;-71
2022/02/02 06:14:13;;;;;;;26.69;24.04;;;;;;;4.51;69.67;100209.39;471150;109;922623;-70
2022/02/02 06:15:18;;;;;;;27.26;24.54;;;;;;;4.48;69.76;100213.28;470996;110;922387;-71
2022/02/02 06:16:25;;;;;;;30.08;24.96;;;;;;;4.46;69.89;100204.55;471093;110;930515;-70
2022/02/02 06:17:29;;;;;;;28.15;25.04;;;;;;;4.45;70.00;100205.56;471391;109;922877;-73
2022/02/02 06:18:34;;;;;;;33.66;29.21;;;;;;;4.46;70.14;100204.55;470877;110;922541;-69
2022/02/02 06:19:38;;;;;;;33.71;27.72;;;;;;;4.47;70.16;100203.50;470924;110;923822;-70
2022/02/02 06:20:44;;;;;;;27.52;24.46;;;;;;;4.50;70.25;100202.30;471942;109;922592;-68
2022/02/02 06:21:51;;;;;;;24.84;22.71;;;;;;;4.52;70.32;100201.08;471081;109;923400;-71
2022/02/02 06:23:00;;;;;;;25.09;22.76;;;;;;;4.55;70.25;100206.13;470115;110;922611;-71
2022/02/02 06:24:07;;;;;;;24.40;22.13;;;;;;;4.54;70.22;100204.45;471084;110;922840;-71
2022/02/02 06:25:33;;;;;;;26.41;23.87;;;;;;;4.54;70.35;100207.15;471968;109;922689;-70
2022/02/02 06:26:39;;;;;;;22.56;20.48;;;;;;;4.55;70.29;100207.98;470750;109;922913;-68
2022/02/02 06:27:44;;;;;;;24.02;21.69;;;;;;;4.54;70.40;100204.45;471035;110;922694;-69
2022/02/02 06:28:50;;;;;;;22.36;20.16;;;;;;;4.56;70.57;100205.11;470988;109;923450;-71
2022/02/02 06:30:02;;;;;;;24.03;21.33;;;;;;;4.59;70.60;100209.28;471597;110;922767;-72
2022/02/02 06:31:09;;;;;;;23.96;19.18;;;;;;;4.61;70.64;100208.09;471260;110;923434;-71
2022/02/02 06:32:15;;;;;;;21.51;19.42;;;;;;;4.65;70.69;100215.81;468556;110;922714;-69
2022/02/02 06:33:19;;;;;;;27.62;24.24;;;;;;;4.66;70.73;100203.98;466094;112;922658;-70
2022/02/02 06:34:24;;;;;;;25.80;23.08;;;;;;;4.68;70.78;100207.35;466673;112;923252;-70
2022/02/02 06:35:29;;;;;;;25.24;22.73;;;;;;;4.70;70.82;100211.53;471201;109;922615;-69
2022/02/02 06:36:36;;;;;;;20.53;18.64;;;;;;;4.73;70.73;100211.17;471155;109;923169;-71
2022/02/02 06:37:39;;;;;;;18.26;16.61;;;;;;;4.73;70.58;100205.77;470488;109;922966;-69
2022/02/02 06:38:44;;;;;;;17.66;16.18;;;;;;;4.73;70.59;100207.63;470698;109;922680;-72
2022/02/02 06:39:50;;;;;;;16.04;14.44;;;;;;;4.72;70.73;100201.39;471516;110;922681;-70
2022/02/02 06:40:53;;;;;;;23.12;20.73;;;;;;;4.73;70.89;100205.77;470534;110;930592;-69
2022/02/02 06:41:57;;;;;;;19.49;15.28;;;;;;;4.75;71.01;100206.41;471632;109;923529;-69
2022/02/02 06:43:04;;;;;;;15.14;13.79;;;;;;;4.78;71.11;100197.95;470784;110;923385;-69
2022/02/02 06:44:07;;;;;;;15.54;14.14;;;;;;;4.83;71.17;100205.48;470629;110;930327;-70
2022/02/02 06:45:12;;;;;;;14.48;13.09;;;;;;;4.86;71.09;100205.94;471032;110;922533;-72
2022/02/02 06:46:18;;;;;;;17.22;13.93;;;;;;;4.89;71.14;100205.58;471088;109;922857;-69
2022/02/02 06:47:24;;;;;;;15.43;12.96;;;;;;;4.91;71.13;100206.20;471116;110;922550;-67
2022/02/02 06:48:30;;;;;;;15.57;13.98;;;;;;;4.94;71.12;100207.71;470723;110;922891;-69
2022/02/02 06:49:33;;;;;;;15.72;13.68;;;;;;;4.97;71.12;100204.62;471417;109;923371;-69
2022/02/02 06:50:40;;;;;;;20.12;13.73;;;;;;;4.97;71.10;100205.46;471515;109;922777;-69
2022/02/02 06:53:32;;;;;;;14.54;13.18;;;;;;;5.03;71.25;100206.57;454123;116;922802;-69
2022/02/02 06:54:48;;;;;;;14.57;11.96;;;;;;;5.09;71.28;100196.87;456962;114;923235;-69
2022/02/02 06:57:51;;;;;;;17.24;13.99;;;;;;;5.13;71.14;100204.41;469668;111;923894;-71
2022/02/02 07:00:51;;;;;;;15.78;12.91;;;;;;;5.12;71.15;100199.22;472428;109;930715;-72
2022/02/02 07:02:54;;;;;;;15.96;13.56;;;;;;;5.24;71.30;100197.68;473037;109;947352;-71
2022/02/02 07:04:06;;;;;;;14.10;12.82;;;;;;;5.15;71.37;100207.77;462337;113;922617;-70
2022/02/02 07:05:18;;;;;;;15.59;13.99;;;;;;;5.17;71.39;100199.48;462725;113;922934;-68
2022/02/02 07:09:10;;;;;;;18.82;13.54;;;;;;;5.22;71.24;100194.34;464059;113;922570;-71
2022/02/02 07:10:57;;;;;;;16.17;13.42;;;;;;;5.24;71.24;100201.22;444442;117;923038;-69
2022/02/02 07:12:30;;;;;;;15.19;13.68;;;;;;;5.28;71.19;100193.59;462479;113;922549;-71
2022/02/02 07:13:46;;;;;;;15.91;14.27;;;;;;;5.31;71.18;100195.90;460526;113;923024;-72
2022/02/02 07:15:12;;;;;;;16.12;14.53;;;;;;;5.33;71.22;100193.86;461526;113;922445;-71
2022/02/02 07:16:42;;;;;;;18.48;13.91;;;;;;;5.38;71.25;100194.12;459934;113;922549;-69
2022/02/02 07:23:54;;;;;;;17.73;15.27;;;;;;;5.60;71.03;100197.69;470261;110;947056;-73
2022/02/02 07:24:50;;;;;;;19.19;16.43;;;;;;;5.50;70.94;100192.59;452547;112;922741;-70
2022/02/02 07:25:50;;;;;;;25.01;17.64;;;;;;;5.52;70.86;100187.81;457599;114;922610;-70
2022/02/02 07:28:07;;;;;;;19.27;17.11;;;;;;;5.54;70.76;100191.17;459773;114;922572;-73
2022/02/02 07:29:11;;;;;;;23.22;19.36;;;;;;;5.55;70.76;100200.97;458548;114;922580;-73
2022/02/02 07:31:44;;;;;;;44.13;29.89;;;;;;;5.55;70.60;100195.56;459478;114;923470;-71
2022/02/02 07:32:53;;;;;;;24.42;19.44;;;;;;;5.54;70.62;100188.47;457873;114;922820;-69
2022/02/02 07:33:53;;;;;;;23.88;20.39;;;;;;;5.57;70.74;100187.27;458535;114;924118;-70
2022/02/02 07:36:21;;;;;;;22.61;19.86;;;;;;;5.61;70.71;100175.02;458748;114;923059;-73
2022/02/02 07:37:38;;;;;;;22.76;20.34;;;;;;;5.65;70.72;100169.03;457378;114;922858;-70
2022/02/02 07:38:51;;;;;;;22.95;19.71;;;;;;;5.68;70.61;100175.94;458426;114;922677;-71
2022/02/02 07:39:57;;;;;;;22.45;19.98;;;;;;;5.70;70.61;100174.70;457619;114;922805;-72
2022/02/02 07:41:07;;;;;;;22.98;19.00;;;;;;;5.72;70.51;100160.98;458042;114;923293;-72
2022/02/02 07:42:12;;;;;;;23.88;20.90;;;;;;;5.72;70.43;100167.23;457051;114;922794;-71
2022/02/02 07:43:19;;;;;;;25.31;22.19;;;;;;;5.75;70.42;100163.30;456771;114;922489;-68
2022/02/02 07:44:33;;;;;;;26.43;22.00;;;;;;;5.88;70.44;100163.45;467901;110;947001;-70
2022/02/02 07:45:36;;;;;;;25.78;22.02;;;;;;;5.79;70.40;100165.41;454744;114;922586;-71
2022/02/02 07:46:49;;;;;;;31.13;23.03;;;;;;;5.83;70.38;100155.05;452042;114;923054;-70
2022/02/02 07:47:58;;;;;;;27.35;22.10;;;;;;;5.84;70.30;100154.84;451141;114;922556;-71
2022/02/02 07:49:02;;;;;;;29.83;23.40;;;;;;;5.85;70.29;100153.81;452978;114;922571;-70
2022/02/02 07:50:07;;;;;;;27.32;23.04;;;;;;;5.88;70.29;100144.52;452330;114;922541;-68
2022/02/02 07:51:11;;;;;;;32.89;22.38;;;;;;;5.91;70.20;100146.82;451641;115;930382;-69
2022/02/02 07:52:17;;;;;;;33.55;23.08;;;;;;;5.91;70.20;100146.82;452656;114;923744;-70
2022/02/02 07:53:25;;;;;;;24.11;21.64;;;;;;;5.94;70.17;100143.73;450853;114;930513;-70
2022/02/02 07:54:36;;;;;;;29.27;22.74;;;;;;;5.96;70.08;100166.01;452487;114;923098;-71
2022/02/02 07:55:44;;;;;;;28.64;24.01;;;;;;;5.95;69.77;100194.13;453226;114;922691;-70
2022/02/02 07:56:47;;;;;;;31.23;26.43;;;;;;;5.86;69.47;100204.19;452346;114;922644;-73
2022/02/02 07:57:52;;;;;;;32.71;25.86;;;;;;;5.76;69.39;100200.14;452539;115;922587;-69
2022/02/02 07:59:18;;;;;;;28.09;23.02;;;;;;;5.66;69.47;100202.33;453478;114;930524;-70
2022/02/02 08:00:22;;;;;;;23.59;20.25;;;;;;;5.56;69.69;100201.81;452740;113;922584;-71
2022/02/02 08:01:24;;;;;;;21.18;17.22;;;;;;;5.44;69.93;100209.58;453418;115;922936;-70
2022/02/02 08:03:55;;;;;;;19.68;17.68;;;;;;;5.30;70.33;100203.17;454888;114;922669;-71
2022/02/02 08:04:55;;;;;;;19.40;17.67;;;;;;;5.28;70.60;100202.54;454077;114;923137;-69
2022/02/02 08:06:01;;;;;;;19.87;17.98;;;;;;;5.29;70.66;100203.38;454759;115;922683;-71
2022/02/02 08:07:07;;;;;;;20.13;18.21;;;;;;;5.29;70.67;100201.48;454419;114;922584;-69
2022/02/02 08:08:25;;;;;;;20.74;18.65;;;;;;;5.30;70.75;100205.03;455891;114;922661;-71
2022/02/02 08:09:25;;;;;;;20.79;18.84;;;;;;;5.29;70.78;100204.19;453271;114;922953;-72
2022/02/02 08:10:23;;;;;;;21.29;19.09;;;;;;;5.30;70.78;100200.47;456012;114;922375;-69
2022/02/02 08:11:32;;;;;;;23.71;19.99;;;;;;;5.31;70.80;100201.30;454322;114;922636;-71
2022/02/02 08:12:44;;;;;;;22.78;20.17;;;;;;;5.31;70.85;100202.14;450631;113;922578;-71
2022/02/02 08:13:46;;;;;;;22.32;19.96;;;;;;;5.33;70.96;100208.21;450735;114;923023;-70
2022/02/02 08:14:55;;;;;;;21.74;19.60;;;;;;;5.35;71.06;100208.84;452201;114;922694;-70
2022/02/02 08:16:01;;;;;;;23.12;19.89;;;;;;;5.40;71.09;100200.19;452174;114;922568;-72
2022/02/02 08:17:02;;;;;;;;;;;;;;;5.42;71.09;100209.77;454985;114;922173;-72
2022/02/02 08:18:05;;;;;;;26.41;19.82;;;;;;;5.45;71.25;100198.59;451878;115;922472;-70
2022/02/02 08:19:08;;;;;;;29.11;22.14;;;;;;;5.51;71.24;100204.25;453243;114;922716;-70
2022/02/02 08:20:12;;;;;;;25.68;21.19;;;;;;;5.54;71.24;100201.16;453952;114;922622;-68
2022/02/02 08:21:15;;;;;;;30.85;22.32;;;;;;;5.57;71.17;100198.08;453360;113;923065;-72
2022/02/02 08:22:18;;;;;;;31.03;24.99;;;;;;;5.59;71.08;100204.12;451949;115;922756;-70
2022/02/02 08:23:22;;;;;;;34.13;25.48;;;;;;;5.60;70.90;100197.69;453454;115;922940;-70
2022/02/02 08:24:27;;;;;;;32.09;26.06;;;;;;;5.61;70.88;100191.25;454469;114;923131;-68
2022/02/02 08:25:32;;;;;;;30.31;25.95;;;;;;;5.64;70.92;100193.56;454235;113;922999;-70
2022/02/02 08:26:36;;;;;;;32.30;26.19;;;;;;;5.67;70.86;100176.97;453517;115;923364;-70
2022/02/02 08:27:40;;;;;;;39.12;28.89;;;;;;;5.71;70.89;100186.36;453998;114;922702;-71
2022/02/02 08:28:46;;;;;;;49.97;34.62;;;;;;;5.76;70.92;100184.75;454116;114;922616;-69
2022/02/02 08:29:49;;;;;;;43.41;33.40;;;;;;;5.79;70.78;100176.23;454903;114;930819;-71
2022/02/02 08:30:52;;;;;;;48.44;35.96;;;;;;;5.83;70.67;100182.95;455244;114;922525;-69
2022/02/02 08:31:55;;;;;;;57.03;40.89;;;;;;;5.85;70.57;100178.16;455767;115;922489;-70
2022/02/02 08:33:01;;;;;;;63.09;43.96;;;;;;;5.86;70.51;100173.59;455204;114;922577;-69
2022/02/02 08:34:10;;;;;;;54.88;38.50;;;;;;;5.88;70.37;100182.39;455021;114;922694;-70
2022/02/02 08:35:11;;;;;;;43.72;31.76;;;;;;;5.89;70.27;100183.23;455104;114;922969;-72
2022/02/02 08:36:18;;;;;;;52.03;35.08;;;;;;;5.90;70.21;100182.21;454302;115;922587;-70
2022/02/02 08:37:27;;;;;;;52.28;35.04;;;;;;;5.90;70.20;100174.91;453150;114;922645;-71
2022/02/02 08:40:49;;;;;;;39.07;28.02;;;;;;;5.92;70.22;100180.13;453544;113;922584;-71
2022/02/02 08:41:57;;;;;;;52.51;35.06;;;;;;;5.94;70.24;100176.21;452769;113;922645;-71
2022/02/02 08:43:01;;;;;;;59.15;38.22;;;;;;;5.96;70.13;100175.99;450953;115;922869;-70
2022/02/02 08:44:11;;;;;;;53.37;36.79;;;;;;;5.96;70.13;100184.11;452766;113;923569;-70